createdAt,value
2018-09-22T00:02:24.402Z,20.07
2018-09-22T00:04:53.246Z,13.07
2018-09-22T00:07:22.116Z,12.97
2018-09-22T00:09:51.006Z,17.53
2018-09-22T00:12:19.810Z,8.53
2018-09-22T00:14:48.657Z,6.80
2018-09-22T00:17:17.498Z,6.67
2018-09-22T00:19:46.338Z,7.90
2018-09-22T00:22:15.230Z,4.80
2018-09-22T00:24:44.074Z,7.10
2018-09-22T00:27:13.092Z,7.73
2018-09-22T00:29:41.954Z,6.57
2018-09-22T00:32:10.798Z,7.07
2018-09-22T00:34:39.634Z,8.40
2018-09-22T00:37:08.261Z,12.63
2018-09-22T00:39:37.007Z,10.17
2018-09-22T00:42:05.864Z,11.40
2018-09-22T00:44:34.573Z,7.83
2018-09-22T00:47:03.426Z,9.87
2018-09-22T00:49:32.269Z,11.07
2018-09-22T00:52:01.134Z,8.37
2018-09-22T00:54:30.006Z,12.00
2018-09-22T00:56:58.840Z,7.73
2018-09-22T00:59:27.683Z,8.97
2018-09-22T01:01:56.535Z,11.90
2018-09-22T01:04:25.381Z,11.27
2018-09-22T01:06:54.234Z,15.33
2018-09-22T01:09:23.083Z,14.47
2018-09-22T01:11:51.949Z,11.60
2018-09-22T01:14:20.793Z,10.53
2018-09-22T01:16:49.641Z,11.20
2018-09-22T01:19:18.494Z,9.43
2018-09-22T01:21:47.334Z,13.27
2018-09-22T01:24:16.193Z,11.43
2018-09-22T01:26:45.042Z,12.53
2018-09-22T01:29:15.149Z,13.30
2018-09-22T01:31:44.709Z,15.43
2018-09-22T01:34:13.874Z,14.03
2018-09-22T01:36:43.126Z,18.23
2018-09-22T01:39:12.178Z,15.47
2018-09-22T01:41:41.794Z,13.83
2018-09-22T01:44:10.663Z,15.40
2018-09-22T01:46:39.496Z,14.50
2018-09-22T01:49:08.378Z,13.40
2018-09-22T01:51:37.227Z,13.97
2018-09-22T01:54:06.117Z,17.57
2018-09-22T01:56:34.975Z,14.77
2018-09-22T01:59:03.834Z,18.37
2018-09-22T02:01:32.682Z,16.07
2018-09-22T02:04:01.531Z,18.10
2018-09-22T02:06:30.383Z,16.23
2018-09-22T02:08:59.316Z,14.20
2018-09-22T02:11:28.173Z,14.93
2018-09-22T02:13:57.075Z,15.83
2018-09-22T02:16:25.951Z,17.83
2018-09-22T02:18:54.798Z,18.70
2018-09-22T02:21:23.655Z,13.27
2018-09-22T02:23:52.591Z,17.80
2018-09-22T02:26:21.491Z,15.03
2018-09-22T02:28:50.379Z,13.73
2018-09-22T02:31:19.222Z,14.17
2018-09-22T02:33:48.079Z,19.50
2018-09-22T02:36:16.893Z,17.70
2018-09-22T02:38:45.734Z,12.33
2018-09-22T02:41:14.566Z,14.63
2018-09-22T02:43:43.402Z,17.83
2018-09-22T02:46:12.234Z,16.63
2018-09-22T02:48:41.080Z,17.23
2018-09-22T02:51:09.914Z,19.17
2018-09-22T02:53:38.830Z,17.83
2018-09-22T02:56:07.666Z,16.13
2018-09-22T02:58:36.502Z,12.70
2018-09-22T03:01:05.395Z,16.37
2018-09-22T03:03:34.357Z,14.83
2018-09-22T03:06:03.191Z,11.93
2018-09-22T03:08:32.038Z,18.73
2018-09-22T03:11:00.867Z,17.23
2018-09-22T03:13:29.778Z,14.40
2018-09-22T03:15:58.667Z,19.03
2018-09-22T03:18:27.511Z,18.93
2018-09-22T03:20:56.350Z,12.33
2018-09-22T03:23:25.206Z,17.63
2018-09-22T03:25:54.042Z,12.00
2018-09-22T03:28:22.890Z,16.57
2018-09-22T03:30:51.749Z,19.67
2018-09-22T03:33:20.582Z,14.27
2018-09-22T03:35:49.426Z,14.50
2018-09-22T03:38:18.080Z,20.33
2018-09-22T03:40:46.775Z,15.27
2018-09-22T03:43:15.606Z,16.80
2018-09-22T03:45:44.453Z,13.93
2018-09-22T03:48:13.289Z,16.10
2018-09-22T03:50:42.186Z,15.33
2018-09-22T03:53:11.018Z,14.07
2018-09-22T03:55:39.866Z,16.73
2018-09-22T03:58:08.698Z,18.30
2018-09-22T04:00:37.539Z,13.00
2018-09-22T04:03:06.420Z,16.83
2018-09-22T04:05:35.228Z,17.53
2018-09-22T04:08:04.053Z,20.17
2018-09-22T04:10:32.894Z,12.13
2018-09-22T04:13:01.731Z,12.30
2018-09-22T04:15:30.569Z,14.03
2018-09-22T04:17:59.403Z,11.57
2018-09-22T04:20:28.259Z,15.93
2018-09-22T04:22:57.104Z,11.43
2018-09-22T04:25:26.030Z,17.37
2018-09-22T04:27:55.187Z,18.60
2018-09-22T04:30:24.084Z,13.57
2018-09-22T04:32:52.943Z,12.40
2018-09-22T04:35:21.791Z,13.23
2018-09-22T04:37:50.671Z,14.93
2018-09-22T04:40:19.518Z,14.80
2018-09-22T04:42:48.355Z,16.03
2018-09-22T04:45:17.198Z,18.07
2018-09-22T04:47:46.034Z,15.67
2018-09-22T04:50:14.885Z,15.30
2018-09-22T04:52:43.730Z,11.53
2018-09-22T04:55:12.637Z,11.33
2018-09-22T04:57:41.489Z,14.87
2018-09-22T05:00:10.359Z,12.67
2018-09-22T05:02:39.229Z,14.13
2018-09-22T05:05:08.047Z,16.03
2018-09-22T05:07:36.886Z,15.60
2018-09-22T05:10:05.735Z,15.13
2018-09-22T05:12:34.566Z,17.70
2018-09-22T05:15:03.979Z,9.87
2018-09-22T05:17:32.827Z,11.17
2018-09-22T05:20:01.667Z,12.33
2018-09-22T05:22:30.506Z,13.50
2018-09-22T05:24:59.346Z,11.53
2018-09-22T05:27:28.185Z,13.90
2018-09-22T05:29:57.038Z,15.77
2018-09-22T05:32:25.873Z,16.13
2018-09-22T05:34:54.714Z,14.73
2018-09-22T05:37:23.590Z,18.63
2018-09-22T05:39:52.421Z,15.10
2018-09-22T05:42:21.310Z,14.40
2018-09-22T05:44:50.103Z,11.17
2018-09-22T05:47:18.954Z,14.30
2018-09-22T05:49:47.929Z,14.83
2018-09-22T05:52:16.766Z,12.00
2018-09-22T05:54:45.602Z,13.77
2018-09-22T05:57:14.442Z,13.67
2018-09-22T05:59:43.361Z,16.37
2018-09-22T06:02:12.264Z,14.43
2018-09-22T06:04:41.094Z,17.87
2018-09-22T06:07:09.938Z,19.43
2018-09-22T06:09:38.791Z,16.37
2018-09-22T06:12:07.662Z,12.33
2018-09-22T06:14:36.516Z,16.60
2018-09-22T06:17:05.366Z,12.10
2018-09-22T06:19:34.210Z,15.53
2018-09-22T06:22:03.045Z,14.00
2018-09-22T06:24:31.935Z,15.20
2018-09-22T06:27:00.778Z,13.90
2018-09-22T06:29:29.618Z,13.17
2018-09-22T06:31:58.470Z,11.60
2018-09-22T06:34:27.306Z,13.17
2018-09-22T06:36:56.418Z,14.00
2018-09-22T06:39:25.257Z,17.73
2018-09-22T06:41:54.127Z,14.67
2018-09-22T06:44:22.942Z,14.00
2018-09-22T06:46:51.778Z,15.80
2018-09-22T06:49:20.610Z,18.30
2018-09-22T06:51:49.452Z,18.43
2018-09-22T06:54:18.337Z,16.20
2018-09-22T06:56:47.175Z,15.50
2018-09-22T06:59:16.038Z,22.10
2018-09-22T07:01:44.886Z,13.97
2018-09-22T07:04:13.717Z,17.93
2018-09-22T07:06:42.571Z,15.10
2018-09-22T07:09:11.402Z,17.43
2018-09-22T07:11:40.371Z,15.90
2018-09-22T07:14:09.168Z,16.20
2018-09-22T07:16:38.075Z,20.30
2018-09-22T07:19:06.906Z,14.57
2018-09-22T07:21:41.146Z,21.43
2018-09-22T07:24:09.775Z,14.93
2018-09-22T07:26:38.490Z,13.27
2018-09-22T07:29:07.326Z,14.17
2018-09-22T07:31:36.182Z,19.90
2018-09-22T07:34:05.013Z,13.60
2018-09-22T07:36:33.886Z,11.07
2018-09-22T07:39:02.746Z,13.37
2018-09-22T07:41:31.633Z,11.70
2018-09-22T07:44:00.480Z,13.23
2018-09-22T07:46:29.317Z,12.80
2018-09-22T07:48:58.159Z,15.97
2018-09-22T07:51:27.007Z,15.30
2018-09-22T07:53:55.883Z,17.00
2018-09-22T07:56:24.695Z,11.60
2018-09-22T07:58:53.744Z,13.20
2018-09-22T08:01:22.990Z,13.10
2018-09-22T08:03:51.831Z,12.93
2018-09-22T08:06:20.858Z,16.63
2018-09-22T08:08:49.698Z,11.53
2018-09-22T08:11:18.534Z,18.50
2018-09-22T08:13:47.378Z,14.50
2018-09-22T08:16:16.726Z,10.67
2018-09-22T08:18:45.549Z,11.87
2018-09-22T08:21:14.382Z,15.77
2018-09-22T08:23:43.233Z,15.53
2018-09-22T08:26:12.062Z,18.30
2018-09-22T08:28:40.902Z,16.30
2018-09-22T08:31:09.754Z,13.57
2018-09-22T08:33:38.615Z,14.07
2018-09-22T08:36:07.578Z,10.70
2018-09-22T08:38:36.317Z,15.47
2018-09-22T08:41:05.167Z,13.10
2018-09-22T08:43:34.015Z,13.60
2018-09-22T08:46:02.971Z,15.90
2018-09-22T08:48:31.815Z,11.80
2018-09-22T08:51:00.679Z,11.13
2018-09-22T08:53:29.520Z,10.97
2018-09-22T08:55:58.411Z,12.33
2018-09-22T08:58:27.227Z,14.40
2018-09-22T09:00:56.083Z,12.03
2018-09-22T09:03:24.935Z,10.40
2018-09-22T09:05:53.827Z,11.57
2018-09-22T09:08:22.651Z,18.77
2018-09-22T09:10:51.557Z,14.40
2018-09-22T09:13:20.381Z,9.90
2018-09-22T09:15:49.251Z,14.00
2018-09-22T09:18:18.093Z,9.80
2018-09-22T09:20:46.953Z,12.67
2018-09-22T09:23:15.814Z,13.77
2018-09-22T09:25:44.895Z,11.87
2018-09-22T09:28:13.747Z,16.50
2018-09-22T09:30:42.662Z,12.37
2018-09-22T09:33:11.522Z,11.50
2018-09-22T09:35:40.402Z,10.77
2018-09-22T09:38:09.285Z,10.80
2018-09-22T09:40:38.130Z,8.07
2018-09-22T09:43:07.119Z,11.93
2018-09-22T09:45:35.962Z,9.90
2018-09-22T09:48:04.826Z,14.67
2018-09-22T09:50:33.681Z,11.80
2018-09-22T09:53:02.626Z,12.90
2018-09-22T09:55:31.521Z,9.67
2018-09-22T09:58:00.371Z,10.53
2018-09-22T10:00:34.622Z,8.77
2018-09-22T10:03:03.466Z,9.83
2018-09-22T10:05:32.390Z,11.53
2018-09-22T10:08:01.241Z,11.07
2018-09-22T10:10:30.133Z,8.47
2018-09-22T10:12:58.971Z,9.70
2018-09-22T10:15:27.817Z,7.53
2018-09-22T10:17:56.662Z,11.43
2018-09-22T10:20:25.526Z,12.17
2018-09-22T10:22:54.365Z,8.30
2018-09-22T10:25:23.402Z,9.33
2018-09-22T10:27:52.246Z,7.03
2018-09-22T10:30:21.102Z,8.40
2018-09-22T10:32:49.964Z,9.33
2018-09-22T10:35:18.806Z,9.03
2018-09-22T10:37:47.658Z,10.30
2018-09-22T10:40:16.527Z,7.60
2018-09-22T10:42:45.398Z,8.47
2018-09-22T10:45:14.258Z,11.17
2018-09-22T10:47:43.103Z,9.10
2018-09-22T10:50:11.938Z,9.77
2018-09-22T10:52:40.844Z,13.23
2018-09-22T10:55:09.642Z,11.07
2018-09-22T10:57:38.567Z,11.97
2018-09-22T11:00:07.364Z,7.83
2018-09-22T11:02:36.209Z,10.23
2018-09-22T11:05:05.206Z,10.60
2018-09-22T11:07:34.059Z,13.33
2018-09-22T11:10:02.915Z,9.43
2018-09-22T11:12:31.768Z,7.27
2018-09-22T11:15:00.621Z,8.33
2018-09-22T11:17:29.478Z,9.50
2018-09-22T11:19:58.323Z,8.33
2018-09-22T11:22:27.184Z,11.63
2018-09-22T11:24:56.226Z,6.30
2018-09-22T11:27:25.078Z,9.80
2018-09-22T11:29:54.006Z,8.27
2018-09-22T11:32:22.915Z,8.13
2018-09-22T11:34:51.762Z,10.50
2018-09-22T11:37:20.824Z,8.77
2018-09-22T11:39:49.681Z,10.63
2018-09-22T11:42:18.535Z,12.30
2018-09-22T11:44:47.766Z,9.20
2018-09-22T11:47:16.609Z,7.67
2018-09-22T11:49:45.510Z,10.10
2018-09-22T11:52:14.318Z,8.33
2018-09-22T11:54:43.163Z,9.80
2018-09-22T11:57:12.006Z,11.10
2018-09-22T11:59:40.863Z,11.87
2018-09-22T12:02:09.795Z,11.50
2018-09-22T12:04:38.954Z,9.93
2018-09-22T12:07:08.205Z,10.73
2018-09-22T12:09:37.630Z,9.67
2018-09-22T12:12:06.517Z,10.77
2018-09-22T12:14:35.326Z,12.70
2018-09-22T12:17:04.180Z,9.43
2018-09-22T12:19:33.022Z,8.83
2018-09-22T12:22:02.421Z,9.77
2018-09-22T12:24:31.279Z,12.23
2018-09-22T12:27:00.130Z,10.77
2018-09-22T12:29:29.002Z,11.87
2018-09-22T12:31:58.000Z,12.67
2018-09-22T12:34:26.906Z,12.33
2018-09-22T12:36:55.767Z,8.43
2018-09-22T12:39:24.626Z,6.57
2018-09-22T12:41:53.511Z,8.70
2018-09-22T12:44:22.354Z,11.03
2018-09-22T12:46:51.206Z,7.83
2018-09-22T12:49:20.059Z,9.13
2018-09-22T12:51:48.901Z,8.20
2018-09-22T12:54:17.754Z,7.17
2018-09-22T12:56:46.666Z,11.50
2018-09-22T12:59:15.517Z,8.17
2018-09-22T13:01:44.354Z,8.30
2018-09-22T13:04:13.210Z,11.60
2018-09-22T13:06:42.109Z,9.73
2018-09-22T13:09:11.576Z,8.00
2018-09-22T13:11:40.421Z,6.77
2018-09-22T13:14:09.279Z,13.00
2018-09-22T13:16:38.114Z,9.20
2018-09-22T13:19:07.046Z,11.80
2018-09-22T13:21:36.002Z,15.07
2018-09-22T13:24:04.866Z,12.80
2018-09-22T13:26:33.719Z,9.37
2018-09-22T13:29:02.566Z,10.97
2018-09-22T13:31:31.406Z,8.60
2018-09-22T13:34:00.663Z,10.23
2018-09-22T13:36:29.491Z,7.23
2018-09-22T13:38:58.326Z,10.53
2018-09-22T13:41:27.154Z,8.83
2018-09-22T13:43:56.005Z,6.93
2018-09-22T13:46:24.892Z,7.60
2018-09-22T13:48:53.800Z,7.03
2018-09-22T13:51:22.630Z,13.47
2018-09-22T13:53:51.488Z,10.33
2018-09-22T13:56:20.454Z,7.97
2018-09-22T13:58:49.214Z,7.43
2018-09-22T14:01:18.046Z,9.70
2018-09-22T14:03:46.968Z,7.10
2018-09-22T14:06:15.738Z,5.10
2018-09-22T14:08:44.595Z,9.30
2018-09-22T14:11:13.414Z,5.80
2018-09-22T14:13:42.250Z,6.43
2018-09-22T14:16:11.078Z,5.77
2018-09-22T14:18:39.984Z,5.17
2018-09-22T14:21:08.751Z,6.30
2018-09-22T14:23:37.614Z,5.67
2018-09-22T14:26:06.533Z,6.13
2018-09-22T14:28:35.362Z,6.77
2018-09-22T14:31:04.202Z,5.73
2018-09-22T14:33:33.035Z,4.37
2018-09-22T14:36:01.872Z,3.87
2018-09-22T14:38:30.706Z,4.57
2018-09-22T14:40:59.325Z,6.37
2018-09-22T14:43:28.023Z,6.40
2018-09-22T14:45:56.872Z,6.37
2018-09-22T14:48:25.687Z,6.63
2018-09-22T14:50:54.522Z,5.50
2018-09-22T14:53:23.354Z,6.47
2018-09-22T14:55:52.190Z,5.77
2018-09-22T14:58:21.055Z,5.00
2018-09-22T15:00:49.907Z,6.27
2018-09-22T15:03:18.740Z,6.33
2018-09-22T15:05:47.574Z,5.40
2018-09-22T15:08:16.402Z,9.13
2018-09-22T15:10:45.242Z,6.43
2018-09-22T15:13:14.078Z,5.80
2018-09-22T15:15:42.963Z,5.33
2018-09-22T15:18:11.797Z,7.40
2018-09-22T15:20:40.687Z,6.43
2018-09-22T15:23:09.486Z,5.13
2018-09-22T15:25:38.339Z,7.07
2018-09-22T15:28:07.182Z,5.53
2018-09-22T15:30:36.150Z,7.80
2018-09-22T15:33:05.106Z,6.90
2018-09-22T15:35:33.957Z,6.93
2018-09-22T15:38:02.806Z,7.63
2018-09-22T15:40:31.653Z,5.57
2018-09-22T15:43:00.494Z,5.13
2018-09-22T15:45:29.383Z,8.03
2018-09-22T15:47:58.210Z,6.17
2018-09-22T15:50:27.098Z,5.07
2018-09-22T15:52:55.938Z,5.93
2018-09-22T15:55:25.038Z,7.00
2018-09-22T15:57:53.886Z,5.20
2018-09-22T16:00:22.725Z,5.63
2018-09-22T16:02:51.574Z,6.83
2018-09-22T16:05:20.418Z,10.57
2018-09-22T16:07:49.046Z,7.90
2018-09-22T16:10:17.775Z,6.27
2018-09-22T16:12:46.630Z,6.63
2018-09-22T16:15:15.256Z,10.03
2018-09-22T16:17:44.002Z,7.10
2018-09-22T16:20:12.842Z,5.43
2018-09-22T16:22:41.695Z,8.03
2018-09-22T16:25:10.549Z,9.23
2018-09-22T16:27:39.386Z,6.53
2018-09-22T16:30:08.902Z,5.37
2018-09-22T16:32:37.942Z,5.87
2018-09-22T16:35:07.502Z,8.23
2018-09-22T16:37:36.358Z,6.07
2018-09-22T16:40:05.174Z,4.10
2018-09-22T16:42:34.058Z,3.57
2018-09-22T16:45:02.899Z,4.67
2018-09-22T16:47:31.748Z,3.77
2018-09-22T16:50:00.631Z,3.13
2018-09-22T16:52:29.401Z,4.77
2018-09-22T16:54:58.234Z,3.93
2018-09-22T16:57:27.070Z,4.23
2018-09-22T16:59:55.890Z,4.20
2018-09-22T17:02:24.730Z,4.63
2018-09-22T17:04:53.554Z,3.10
2018-09-22T17:07:22.434Z,5.00
2018-09-22T17:09:51.265Z,4.03
2018-09-22T17:12:20.108Z,4.90
2018-09-22T17:14:48.938Z,5.00
2018-09-22T17:17:17.769Z,5.00
2018-09-22T17:19:46.594Z,5.97
2018-09-22T17:22:15.430Z,5.03
2018-09-22T17:24:44.262Z,5.33
2018-09-22T17:27:13.100Z,5.00
2018-09-22T17:29:42.024Z,6.17
2018-09-22T17:32:11.546Z,6.50
2018-09-22T17:34:40.387Z,6.27
2018-09-22T17:37:09.222Z,7.97
2018-09-22T17:39:38.049Z,7.10
2018-09-22T17:42:06.963Z,6.33
2018-09-22T17:44:35.790Z,6.53
2018-09-22T17:47:04.626Z,3.83
2018-09-22T17:49:33.502Z,7.93
2018-09-22T17:52:02.286Z,8.00
2018-09-22T17:54:31.109Z,5.20
2018-09-22T17:57:00.046Z,5.50
2018-09-22T17:59:29.094Z,6.33
2018-09-22T18:01:58.339Z,5.93
2018-09-22T18:04:27.192Z,7.33
2018-09-22T18:06:55.999Z,9.60
2018-09-22T18:09:24.821Z,8.20
2018-09-22T18:11:53.653Z,9.43
2018-09-22T18:14:23.296Z,9.83
2018-09-22T18:16:52.231Z,6.97
2018-09-22T18:19:20.966Z,7.50
2018-09-22T18:21:49.793Z,6.67
2018-09-22T18:24:18.629Z,8.63
2018-09-22T18:26:47.254Z,9.63
2018-09-22T18:29:15.969Z,8.77
2018-09-22T18:31:44.821Z,6.60
2018-09-22T18:34:13.679Z,6.60
2018-09-22T18:36:42.533Z,7.17
2018-09-22T18:39:11.342Z,7.97
2018-09-22T18:41:40.230Z,6.07
2018-09-22T18:44:08.849Z,9.00
2018-09-22T18:46:37.566Z,8.37
2018-09-22T18:49:06.402Z,7.63
2018-09-22T18:51:35.469Z,7.37
2018-09-22T18:54:04.415Z,6.97
2018-09-22T18:56:33.247Z,6.97
2018-09-22T18:59:02.078Z,5.40
2018-09-22T19:01:30.938Z,5.37
2018-09-22T19:03:59.769Z,8.17
2018-09-22T19:06:28.614Z,5.50
2018-09-22T19:08:57.542Z,6.33
2018-09-22T19:11:26.302Z,6.37
2018-09-22T19:14:03.153Z,7.33
2018-09-22T19:16:38.594Z,8.00
2018-09-22T19:19:10.234Z,6.93
2018-09-22T19:21:56.498Z,5.50
2018-09-22T19:24:59.174Z,7.47
2018-09-22T19:27:33.006Z,7.30
2018-09-22T19:30:05.338Z,7.10
2018-09-22T19:32:38.434Z,8.13
2018-09-22T19:35:13.971Z,8.03
2018-09-22T19:38:46.118Z,6.03
2018-09-22T19:41:22.794Z,8.77
2018-09-22T19:43:56.619Z,7.50
2018-09-22T19:46:30.459Z,5.87
2018-09-22T19:49:02.651Z,5.53
2018-09-22T19:51:35.675Z,7.70
2018-09-22T19:54:04.979Z,8.33
2018-09-22T19:56:33.805Z,7.60
2018-09-22T19:59:02.641Z,9.60
2018-09-22T20:01:31.479Z,9.27
2018-09-22T20:04:00.314Z,11.20
2018-09-22T20:06:29.146Z,13.07
2018-09-22T20:08:57.990Z,9.60
2018-09-22T20:11:26.839Z,8.30
2018-09-22T20:13:55.654Z,7.13
2018-09-22T20:16:24.542Z,9.60
2018-09-22T20:18:53.463Z,11.70
2018-09-22T20:21:22.313Z,9.63
2018-09-22T20:23:50.930Z,9.17
2018-09-22T20:26:19.629Z,11.57
2018-09-22T20:28:48.466Z,13.03
2018-09-22T20:31:17.093Z,14.70
2018-09-22T20:33:45.830Z,11.07
2018-09-22T20:36:14.706Z,12.37
2018-09-22T20:38:43.522Z,9.50
2018-09-22T20:41:12.423Z,9.47
2018-09-22T20:43:41.280Z,11.47
2018-09-22T20:46:10.120Z,12.27
2018-09-22T20:48:38.970Z,11.07
2018-09-22T20:51:08.227Z,12.20
2018-09-22T20:53:37.104Z,10.70
2018-09-22T20:56:05.934Z,10.43
2018-09-22T20:58:34.794Z,12.43
2018-09-22T21:01:03.634Z,8.63
2018-09-22T21:03:32.530Z,8.73
2018-09-22T21:06:01.370Z,7.07
2018-09-22T21:08:30.223Z,7.03
2018-09-22T21:10:59.066Z,8.87
2018-09-22T21:13:27.962Z,6.60
2018-09-22T21:15:56.940Z,8.23
2018-09-22T21:18:25.786Z,8.63
2018-09-22T21:20:54.626Z,9.30
2018-09-22T21:23:23.484Z,7.53
2018-09-22T21:25:52.318Z,6.43
2018-09-22T21:28:21.213Z,8.20
2018-09-22T21:30:50.101Z,8.70
2018-09-22T21:33:18.911Z,6.53
2018-09-22T21:35:47.747Z,7.53
2018-09-22T21:38:16.590Z,7.70
2018-09-22T21:40:45.489Z,9.20
2018-09-22T21:43:14.333Z,8.57
2018-09-22T21:45:43.193Z,8.47
2018-09-22T21:48:12.026Z,6.97
2018-09-22T21:50:40.874Z,7.43
2018-09-22T21:53:09.718Z,7.67
2018-09-22T21:55:38.570Z,5.90
2018-09-22T21:58:07.578Z,7.47
2018-09-22T22:00:36.430Z,8.77
2018-09-22T22:03:05.609Z,6.17
2018-09-22T22:05:34.453Z,6.83
2018-09-22T22:08:03.325Z,9.57
2018-09-22T22:10:32.170Z,6.63
2018-09-22T22:13:01.005Z,7.67
2018-09-22T22:15:30.462Z,8.57
2018-09-22T22:17:59.310Z,6.47
2018-09-22T22:20:28.157Z,8.37
2018-09-22T22:22:57.020Z,7.00
2018-09-22T22:25:25.864Z,7.73
2018-09-22T22:27:54.709Z,7.93
2018-09-22T22:30:23.561Z,7.97
2018-09-22T22:32:52.394Z,7.53
2018-09-22T22:35:21.625Z,9.23
2018-09-22T22:37:50.366Z,8.40
2018-09-22T22:40:19.198Z,6.57
2018-09-22T22:42:48.035Z,8.30
2018-09-22T22:45:16.654Z,7.20
2018-09-22T22:47:45.398Z,7.60
2018-09-22T22:50:14.286Z,8.70
2018-09-22T22:52:43.147Z,7.87
2018-09-22T22:55:11.994Z,9.90
2018-09-22T22:57:40.830Z,10.37
2018-09-22T23:00:09.683Z,9.23
2018-09-22T23:02:38.501Z,7.47
2018-09-22T23:05:07.442Z,7.87
2018-09-22T23:07:36.274Z,8.17
2018-09-22T23:10:05.111Z,7.53
2018-09-22T23:12:33.954Z,6.90
2018-09-22T23:15:02.818Z,12.03
2018-09-22T23:17:31.646Z,9.60
2018-09-22T23:20:00.481Z,10.80
2018-09-22T23:22:29.309Z,7.00
2018-09-22T23:24:58.158Z,11.87
2018-09-22T23:27:27.378Z,9.47
2018-09-22T23:29:56.335Z,9.23
2018-09-22T23:32:25.170Z,9.23
2018-09-22T23:34:54.005Z,10.80
2018-09-22T23:37:22.847Z,11.03
2018-09-22T23:39:51.700Z,12.17
2018-09-22T23:42:20.534Z,10.20
2018-09-22T23:44:49.163Z,12.73
2018-09-22T23:47:17.885Z,12.63
2018-09-22T23:49:47.310Z,11.80
2018-09-22T23:52:16.110Z,12.57
2018-09-22T23:54:44.946Z,13.07
2018-09-22T23:57:13.790Z,11.40
2018-09-22T23:59:42.640Z,10.87
